Terminal Aerodrome Forecast
Issued by NWS

Home | Current Version | Previous Version | Text Only | Print | Product List | Glossary On
Versions: 1 2 3 4 5 6 7 8 9 10 11 12 13 14 15 16 17 18 19 20 21 22 23 24 25
404
FTUS46 KSGX 251720
TAFSAN
TAF
KSAN 251720Z 2518/2624 20011KT P6SM SCT025 SCT250
     FM252100 23011KT P6SM FEW020 SCT250
     FM260200 VRB05KT P6SM SCT015 SCT250
     FM262000 26009KT P6SM FEW015 SCT250=

USA.gov is the U.S. government's official web portal to all federal, state and local government web resources and services.